createdAt,value
2019-03-18T00:03:22.036Z,95434.00
2019-03-18T00:08:51.290Z,95431.00
2019-03-18T00:14:20.557Z,95426.00
2019-03-18T00:19:49.898Z,95441.00
2019-03-18T00:25:19.234Z,95444.00
2019-03-18T00:30:48.493Z,95444.00
2019-03-18T00:36:17.773Z,95445.00
2019-03-18T00:41:47.039Z,95444.00
2019-03-18T00:47:16.308Z,95445.00
2019-03-18T00:52:45.831Z,95463.00
2019-03-18T00:58:15.100Z,95480.00
2019-03-18T01:03:44.368Z,95497.00
2019-03-18T01:09:13.677Z,95493.00
2019-03-18T01:14:42.907Z,95486.00
2019-03-18T01:20:16.680Z,95486.00
2019-03-18T01:25:51.855Z,95487.00
2019-03-18T01:31:27.508Z,95486.00
2019-03-18T01:37:08.099Z,95467.00
2019-03-18T01:42:40.717Z,95473.00
2019-03-18T01:48:24.480Z,95471.00
2019-03-18T01:53:59.622Z,95468.00
2019-03-18T01:59:38.204Z,95454.00
2019-03-18T02:05:10.132Z,95462.00
2019-03-18T02:10:51.701Z,95473.00
2019-03-18T02:16:24.388Z,95463.00
2019-03-18T02:21:53.971Z,95478.00
2019-03-18T02:27:25.230Z,95464.00
2019-03-18T02:33:01.647Z,95468.00
2019-03-18T02:38:38.834Z,95480.00
2019-03-18T02:44:12.215Z,95480.00
2019-03-18T02:49:45.081Z,95495.00
2019-03-18T02:55:14.851Z,95501.00
2019-03-18T03:00:48.119Z,95506.00
2019-03-18T03:06:17.645Z,95507.00
2019-03-18T03:11:48.684Z,95504.00
2019-03-18T03:17:30.118Z,95500.00
2019-03-18T03:23:04.501Z,95501.00
2019-03-18T03:28:39.965Z,95482.00
2019-03-18T03:34:14.299Z,95476.00
2019-03-18T03:45:21.691Z,95480.00
2019-03-18T03:50:55.011Z,95494.00
2019-03-18T03:56:33.959Z,95496.00
2019-03-18T04:02:11.261Z,95492.00
2019-03-18T04:07:46.626Z,95484.00
2019-03-18T04:13:24.413Z,95498.00
2019-03-18T04:19:03.024Z,95486.00
2019-03-18T04:24:40.486Z,95487.00
2019-03-18T04:30:20.109Z,95488.00
2019-03-18T04:35:51.695Z,95495.00
2019-03-18T04:41:23.078Z,95493.00
2019-03-18T04:46:54.178Z,95489.00
2019-03-18T04:52:25.560Z,95478.00
2019-03-18T04:57:58.041Z,95513.00
2019-03-18T05:03:32.346Z,95507.00
2019-03-18T05:09:12.206Z,95512.00
2019-03-18T05:14:50.972Z,95517.00
2019-03-18T05:20:30.751Z,95512.00
2019-03-18T05:26:03.635Z,95498.00
2019-03-18T05:31:35.048Z,95476.00
2019-03-18T05:37:11.987Z,95496.00
2019-03-18T05:42:46.248Z,95497.00
2019-03-18T05:48:23.734Z,95511.00
2019-03-18T05:54:01.016Z,95511.00
2019-03-18T05:59:36.472Z,95528.00
2019-03-18T06:05:14.310Z,95542.00
2019-03-18T06:10:50.036Z,95545.00
2019-03-18T06:16:33.375Z,95560.00
2019-03-18T06:22:06.119Z,95554.00
2019-03-18T06:27:44.483Z,95553.00
2019-03-18T06:33:14.934Z,95561.00
2019-03-18T06:38:50.993Z,95552.00
2019-03-18T06:44:33.606Z,95570.00
2019-03-18T06:50:04.863Z,95574.00
2019-03-18T06:55:57.587Z,95589.00
2019-03-18T07:01:31.615Z,95576.00
2019-03-18T07:07:11.915Z,95583.00
2019-03-18T07:12:48.152Z,95598.00
2019-03-18T07:18:23.139Z,95602.00
2019-03-18T07:24:09.356Z,95596.00
2019-03-18T07:29:50.553Z,95600.00
2019-03-18T07:35:29.309Z,95621.00
2019-03-18T07:41:07.990Z,95628.00
2019-03-18T07:46:45.703Z,95607.00
2019-03-18T07:52:37.882Z,95602.00
2019-03-18T07:58:24.790Z,95615.00
2019-03-18T08:04:05.478Z,95621.00
2019-03-18T08:09:46.473Z,95633.00
2019-03-18T08:15:26.654Z,95649.00
2019-03-18T08:21:01.512Z,95645.00
2019-03-18T08:26:51.098Z,95647.00
2019-03-18T08:32:14.880Z,95659.00
2019-03-18T08:37:49.206Z,95665.00
2019-03-18T08:43:20.549Z,95674.00
2019-03-18T08:48:56.361Z,95679.00
2019-03-18T08:54:30.820Z,95691.00
2019-03-18T09:00:16.814Z,95691.00
2019-03-18T09:05:48.094Z,95683.00
2019-03-18T09:11:36.979Z,95688.00
2019-03-18T09:17:09.883Z,95686.00
2019-03-18T09:22:41.253Z,95695.00
2019-03-18T09:28:12.396Z,95690.00
2019-03-18T09:33:50.957Z,95701.00
2019-03-18T09:45:30.988Z,95710.00
2019-03-18T09:51:14.039Z,95720.00
2019-03-18T09:56:43.823Z,95697.00
2019-03-18T10:02:31.017Z,95704.00
2019-03-18T10:08:15.464Z,95703.00
2019-03-18T10:19:42.175Z,95708.00
2019-03-18T10:25:14.411Z,95736.00
2019-03-18T10:30:50.138Z,95732.00
2019-03-18T10:36:30.545Z,95728.00
2019-03-18T10:42:06.590Z,95738.00
2019-03-18T10:47:38.161Z,95730.00
2019-03-18T10:53:12.529Z,95744.00
2019-03-18T10:58:49.637Z,95737.00
2019-03-18T11:04:24.034Z,95739.00
2019-03-18T11:10:01.967Z,95750.00
2019-03-18T11:15:49.698Z,95775.00
2019-03-18T11:21:22.687Z,95773.00
2019-03-18T11:26:56.876Z,95778.00
2019-03-18T11:32:34.723Z,95785.00
2019-03-18T11:38:11.231Z,95784.00
2019-03-18T11:43:45.105Z,95772.00
2019-03-18T11:49:43.368Z,95777.00
2019-03-18T11:55:20.924Z,95766.00
2019-03-18T12:00:50.755Z,95775.00
2019-03-18T12:06:25.508Z,95774.00
2019-03-18T12:12:00.985Z,95767.00
2019-03-18T12:17:38.897Z,95769.00
2019-03-18T12:23:10.355Z,95767.00
2019-03-18T12:28:41.847Z,95772.00
2019-03-18T12:34:11.624Z,95763.00
2019-03-18T12:39:45.994Z,95772.00
2019-03-18T12:45:26.082Z,95762.00
2019-03-18T12:51:00.276Z,95760.00
2019-03-18T12:56:34.005Z,95758.00
2019-03-18T13:02:05.233Z,95742.00
2019-03-18T13:07:40.394Z,95750.00
2019-03-18T13:13:23.417Z,95758.00
2019-03-18T13:19:04.849Z,95766.00
2019-03-18T13:24:42.452Z,95747.00
2019-03-18T13:30:27.542Z,95756.00
2019-03-18T13:35:59.479Z,95765.00
2019-03-18T13:41:38.334Z,95758.00
2019-03-18T13:47:09.532Z,95763.00
2019-03-18T13:52:42.624Z,95774.00
2019-03-18T13:58:17.007Z,95777.00
2019-03-18T14:03:49.688Z,95774.00
2019-03-18T14:09:27.204Z,95776.00
2019-03-18T14:15:00.365Z,95776.00
2019-03-18T14:20:40.240Z,95773.00
2019-03-18T14:26:11.671Z,95787.00
2019-03-18T14:31:46.103Z,95785.00
2019-03-18T14:37:18.999Z,95793.00
2019-03-18T14:42:53.999Z,95792.00
2019-03-18T14:48:31.766Z,95803.00
2019-03-18T14:54:09.452Z,95806.00
2019-03-18T14:59:43.214Z,95799.00
2019-03-18T15:05:17.207Z,95784.00
2019-03-18T15:10:51.606Z,95782.00
2019-03-18T15:16:28.714Z,95789.00
2019-03-18T15:22:03.767Z,95798.00
2019-03-18T15:27:35.132Z,95793.00
2019-03-18T15:33:08.132Z,95807.00
2019-03-18T15:38:48.661Z,95812.00
2019-03-18T15:44:20.193Z,95821.00
2019-03-18T15:50:00.402Z,95833.00
2019-03-18T15:55:30.492Z,95851.00
2019-03-18T16:01:03.959Z,95858.00
2019-03-18T16:06:38.865Z,95865.00
2019-03-18T16:12:15.051Z,95876.00
2019-03-18T16:17:55.190Z,95879.00
2019-03-18T16:23:39.524Z,95857.00
2019-03-18T16:29:14.399Z,95894.00
2019-03-18T16:34:45.824Z,95904.00
2019-03-18T16:40:32.984Z,95912.00
2019-03-18T16:46:07.227Z,95913.00
2019-03-18T16:51:49.551Z,95910.00
2019-03-18T16:57:30.820Z,95907.00
2019-03-18T17:03:05.678Z,95916.00
2019-03-18T17:08:42.987Z,95919.00
2019-03-18T17:14:26.961Z,95919.00
2019-03-18T17:20:07.540Z,95921.00
2019-03-18T17:25:38.200Z,95929.00
2019-03-18T17:31:10.512Z,95929.00
2019-03-18T17:36:53.063Z,95931.00
2019-03-18T17:42:25.805Z,95936.00
2019-03-18T17:47:59.925Z,95943.00
2019-03-18T17:53:31.306Z,95952.00
2019-03-18T17:59:19.099Z,95955.00
2019-03-18T18:05:02.463Z,95962.00
2019-03-18T18:10:30.725Z,95975.00
2019-03-18T18:16:23.188Z,95982.00
2019-03-18T18:21:58.442Z,95986.00
2019-03-18T18:27:29.858Z,95986.00
2019-03-18T18:33:01.243Z,95988.00
2019-03-18T18:38:39.447Z,95994.00
2019-03-18T18:44:15.456Z,95998.00
2019-03-18T18:49:47.685Z,96011.00
2019-03-18T18:55:17.534Z,96000.00
2019-03-18T19:00:54.613Z,96010.00
2019-03-18T19:06:26.749Z,96010.00
2019-03-18T19:12:00.622Z,96018.00
2019-03-18T19:17:37.186Z,96021.00
2019-03-18T19:23:15.688Z,96042.00
2019-03-18T19:28:50.062Z,96048.00
2019-03-18T19:34:24.069Z,96058.00
2019-03-18T19:40:24.160Z,96063.00
2019-03-18T19:45:59.069Z,96066.00
2019-03-18T19:51:31.611Z,96064.00
2019-03-18T19:57:05.717Z,96059.00
2019-03-18T20:02:37.102Z,96081.00
2019-03-18T20:08:12.969Z,96089.00
2019-03-18T20:13:45.988Z,96095.00
2019-03-18T20:19:18.655Z,96100.00
2019-03-18T20:24:50.405Z,96110.00
2019-03-18T20:30:27.251Z,96106.00
2019-03-18T20:36:01.644Z,96109.00
2019-03-18T20:41:35.914Z,96112.00
2019-03-18T20:47:11.371Z,96111.00
2019-03-18T20:52:50.535Z,96117.00
2019-03-18T20:58:24.895Z,96116.00
2019-03-18T21:03:59.920Z,96123.00
2019-03-18T21:09:30.269Z,96121.00
2019-03-18T21:15:00.562Z,96119.00
2019-03-18T21:20:33.723Z,96132.00
2019-03-18T21:26:12.961Z,96133.00
2019-03-18T21:31:44.197Z,96135.00
2019-03-18T21:37:18.705Z,96137.00
2019-03-18T21:42:55.928Z,96135.00
2019-03-18T21:48:28.139Z,96130.00
2019-03-18T21:54:01.698Z,96140.00
2019-03-18T21:59:37.689Z,96136.00
2019-03-18T22:05:10.525Z,96140.00
2019-03-18T22:10:45.373Z,96138.00
2019-03-18T22:16:35.448Z,96141.00
2019-03-18T22:22:10.088Z,96149.00
2019-03-18T22:27:42.719Z,96159.00
2019-03-18T22:33:13.535Z,96157.00
2019-03-18T22:38:50.640Z,96149.00
2019-03-18T22:44:28.048Z,96159.00
2019-03-18T22:49:58.082Z,96154.00
2019-03-18T22:55:31.526Z,96161.00
2019-03-18T23:01:08.831Z,96160.00
2019-03-18T23:06:42.840Z,96147.00
2019-03-18T23:12:24.376Z,96149.00
2019-03-18T23:17:54.293Z,96146.00
2019-03-18T23:23:28.011Z,96137.00
2019-03-18T23:29:03.876Z,96155.00
2019-03-18T23:34:45.214Z,96155.00
2019-03-18T23:40:16.562Z,96159.00
2019-03-18T23:45:56.364Z,96163.00
2019-03-18T23:51:27.551Z,96157.00
2019-03-18T23:57:03.368Z,96165.00
